createdAt,value
2023-02-17T00:00:37.461Z,1015.39
2023-02-17T00:01:37.391Z,1015.39
2023-02-17T00:02:37.409Z,1015.38
2023-02-17T00:03:37.437Z,1015.36
2023-02-17T00:04:37.376Z,1015.38
2023-02-17T00:05:37.371Z,1015.41
2023-02-17T00:06:37.342Z,1015.40
2023-02-17T00:07:37.341Z,1015.42
2023-02-17T00:08:37.316Z,1015.35
2023-02-17T00:09:37.319Z,1015.40
2023-02-17T00:10:37.302Z,1015.32
2023-02-17T00:11:37.305Z,1015.32
2023-02-17T00:12:37.284Z,1015.32
2023-02-17T00:13:37.263Z,1015.25
2023-02-17T00:14:37.261Z,1015.32
2023-02-17T00:15:37.275Z,1015.30
2023-02-17T00:16:37.270Z,1015.29
2023-02-17T00:17:37.231Z,1015.26
2023-02-17T00:18:37.221Z,1015.25
2023-02-17T00:19:37.202Z,1015.29
2023-02-17T00:20:37.193Z,1015.27
2023-02-17T00:21:37.193Z,1015.23
2023-02-17T00:22:37.164Z,1015.12
2023-02-17T00:23:37.162Z,1015.23
2023-02-17T00:24:37.197Z,1015.29
2023-02-17T00:25:37.131Z,1015.26
2023-02-17T00:26:37.141Z,1015.27
2023-02-17T00:27:37.133Z,1015.26
2023-02-17T00:28:37.103Z,1015.28
2023-02-17T00:29:37.092Z,1015.25
2023-02-17T00:30:37.088Z,1015.25
2023-02-17T00:31:37.150Z,1015.17
2023-02-17T00:32:37.087Z,1015.29
2023-02-17T00:33:37.078Z,1015.34
2023-02-17T00:34:37.066Z,1015.26
2023-02-17T00:35:37.043Z,1015.19
2023-02-17T00:36:37.018Z,1015.23
2023-02-17T00:37:37.021Z,1015.20
2023-02-17T00:38:37.007Z,1015.22
2023-02-17T00:39:36.997Z,1015.23
2023-02-17T00:40:37.010Z,1015.20
2023-02-17T00:41:36.967Z,1015.23
2023-02-17T00:42:36.962Z,1015.21
2023-02-17T00:43:36.965Z,1015.14
2023-02-17T00:44:36.941Z,1015.17
2023-02-17T00:45:36.967Z,1015.13
2023-02-17T00:46:37.001Z,1015.10
2023-02-17T00:47:36.924Z,1015.08
2023-02-17T00:48:36.956Z,1015.09
2023-02-17T00:49:36.899Z,1015.09
2023-02-17T00:50:36.882Z,1014.99
2023-02-17T00:51:36.872Z,1015.01
2023-02-17T00:52:36.872Z,1015.01
2023-02-17T00:53:36.843Z,1014.96
2023-02-17T00:54:36.857Z,1015.03
2023-02-17T00:55:36.827Z,1015.00
2023-02-17T00:56:36.827Z,1015.02
2023-02-17T00:57:36.798Z,1014.98
2023-02-17T00:58:36.824Z,1015.03
2023-02-17T00:59:36.790Z,1014.87
2023-02-17T01:00:36.811Z,1014.90
2023-02-17T01:01:36.808Z,1014.78
2023-02-17T01:02:36.768Z,1014.91
2023-02-17T01:03:36.749Z,1014.82
2023-02-17T01:04:36.804Z,1014.86
2023-02-17T01:05:36.741Z,1014.86
2023-02-17T01:06:36.709Z,1014.76
2023-02-17T01:07:36.692Z,1014.77
2023-02-17T01:08:36.690Z,1014.67
2023-02-17T01:09:36.678Z,1014.78
2023-02-17T01:10:36.675Z,1014.80
2023-02-17T01:11:36.684Z,1014.76
2023-02-17T01:12:36.637Z,1014.73
2023-02-17T01:13:36.638Z,1014.75
2023-02-17T01:14:36.619Z,1014.70
2023-02-17T01:15:36.657Z,1014.69
2023-02-17T01:16:36.616Z,1014.66
2023-02-17T01:17:36.587Z,1014.64
2023-02-17T01:18:36.575Z,1014.60
2023-02-17T01:19:36.564Z,1014.61
2023-02-17T01:20:36.581Z,1014.65
2023-02-17T01:21:36.564Z,1014.52
2023-02-17T01:22:36.544Z,1014.52
2023-02-17T01:23:36.523Z,1014.50
2023-02-17T01:24:36.519Z,1014.50
2023-02-17T01:25:36.504Z,1014.50
2023-02-17T01:26:36.488Z,1014.48
2023-02-17T01:27:36.497Z,1014.49
2023-02-17T01:28:36.476Z,1014.51
2023-02-17T01:29:36.469Z,1014.46
2023-02-17T01:30:36.446Z,1014.52
2023-02-17T01:31:36.574Z,1014.43
2023-02-17T01:32:36.432Z,1014.49
2023-02-17T01:33:36.416Z,1014.48
2023-02-17T01:34:36.415Z,1014.43
2023-02-17T01:35:36.404Z,1014.46
2023-02-17T01:36:36.416Z,1014.45
2023-02-17T01:37:36.393Z,1014.47
2023-02-17T01:38:36.369Z,1014.44
2023-02-17T01:39:36.370Z,1014.38
2023-02-17T01:40:36.346Z,1014.40
2023-02-17T01:41:36.346Z,1014.40
2023-02-17T01:42:36.331Z,1014.36
2023-02-17T01:43:36.318Z,1014.33
2023-02-17T01:44:36.297Z,1014.25
2023-02-17T01:45:36.292Z,1014.28
2023-02-17T01:46:36.437Z,1014.27
2023-02-17T01:47:36.271Z,1014.25
2023-02-17T01:48:36.256Z,1014.29
2023-02-17T01:49:36.256Z,1014.28
2023-02-17T01:50:36.231Z,1014.25
2023-02-17T01:51:36.219Z,1014.23
2023-02-17T01:52:36.242Z,1014.25
2023-02-17T01:53:36.200Z,1014.17
2023-02-17T01:54:36.182Z,1014.17
2023-02-17T01:55:36.186Z,1014.20
2023-02-17T01:56:36.170Z,1014.16
2023-02-17T01:57:36.163Z,1014.16
2023-02-17T01:58:36.170Z,1014.11
2023-02-17T01:59:36.127Z,1014.09
2023-02-17T02:00:36.126Z,1014.12
2023-02-17T02:01:36.141Z,1014.16
2023-02-17T02:02:36.262Z,1014.08
2023-02-17T02:03:36.095Z,1014.17
2023-02-17T02:04:36.083Z,1014.16
2023-02-17T02:05:37.632Z,1014.16
2023-02-17T02:06:36.068Z,1014.11
2023-02-17T02:07:36.043Z,1014.10
2023-02-17T02:08:36.075Z,1014.04
2023-02-17T02:09:36.048Z,1013.98
2023-02-17T02:10:36.011Z,1013.99
2023-02-17T02:11:36.002Z,1014.00
2023-02-17T02:12:35.996Z,1013.93
2023-02-17T02:13:35.984Z,1013.89
2023-02-17T02:14:35.990Z,1013.92
2023-02-17T02:15:35.983Z,1013.87
2023-02-17T02:16:36.008Z,1013.84
2023-02-17T02:17:35.956Z,1013.85
2023-02-17T02:18:35.939Z,1013.81
2023-02-17T02:19:35.926Z,1013.83
2023-02-17T02:20:35.917Z,1013.74
2023-02-17T02:21:35.918Z,1013.78
2023-02-17T02:22:35.895Z,1013.69
2023-02-17T02:23:35.884Z,1013.65
2023-02-17T02:24:35.888Z,1013.66
2023-02-17T02:25:35.872Z,1013.64
2023-02-17T02:26:35.878Z,1013.66
2023-02-17T02:27:35.836Z,1013.61
2023-02-17T02:28:35.833Z,1013.63
2023-02-17T02:29:35.838Z,1013.56
2023-02-17T02:30:35.818Z,1013.58
2023-02-17T02:31:35.813Z,1013.53
2023-02-17T02:32:35.801Z,1013.51
2023-02-17T02:33:35.781Z,1013.54
2023-02-17T02:34:35.776Z,1013.54
2023-02-17T02:35:35.756Z,1013.59
2023-02-17T02:36:35.746Z,1013.49
2023-02-17T02:37:35.742Z,1013.60
2023-02-17T02:38:35.732Z,1013.49
2023-02-17T02:39:35.707Z,1013.48
2023-02-17T02:40:35.726Z,1013.48
2023-02-17T02:41:35.696Z,1013.47
2023-02-17T02:42:35.701Z,1013.47
2023-02-17T02:43:35.673Z,1013.45
2023-02-17T02:44:43.185Z,1013.47
2023-02-17T02:45:43.215Z,1013.48
2023-02-17T02:46:43.174Z,1013.41
2023-02-17T02:47:44.634Z,1013.38
2023-02-17T02:48:35.620Z,1013.38
2023-02-17T02:49:35.613Z,1013.41
2023-02-17T02:50:35.602Z,1013.36
2023-02-17T02:51:35.590Z,1013.30
2023-02-17T02:52:35.576Z,1013.31
2023-02-17T02:53:35.579Z,1013.17
2023-02-17T02:54:35.558Z,1013.21
2023-02-17T02:55:35.561Z,1013.25
2023-02-17T02:56:35.565Z,1013.24
2023-02-17T02:57:35.530Z,1013.22
2023-02-17T02:58:35.529Z,1013.22
2023-02-17T02:59:35.497Z,1013.16
2023-02-17T03:00:35.489Z,1013.17
2023-02-17T03:01:35.474Z,1013.14
2023-02-17T03:02:35.469Z,1013.16
2023-02-17T03:03:35.495Z,1013.01
2023-02-17T03:04:35.473Z,1013.06
2023-02-17T03:05:35.445Z,1013.10
2023-02-17T03:06:35.437Z,1012.99
2023-02-17T03:07:35.406Z,1013.02
2023-02-17T03:08:35.402Z,1012.99
2023-02-17T03:09:35.394Z,1012.98
2023-02-17T03:10:35.385Z,1012.94
2023-02-17T03:11:35.375Z,1012.91
2023-02-17T03:12:35.375Z,1012.89
2023-02-17T03:13:35.348Z,1012.88
2023-02-17T03:14:35.332Z,1012.86
2023-02-17T03:15:35.346Z,1012.78
2023-02-17T03:16:35.341Z,1012.84
2023-02-17T03:17:35.303Z,1012.79
2023-02-17T03:18:35.304Z,1012.81
2023-02-17T03:19:35.290Z,1012.83
2023-02-17T03:20:35.299Z,1012.77
2023-02-17T03:21:35.270Z,1012.74
2023-02-17T03:22:35.246Z,1012.79
2023-02-17T03:23:35.252Z,1012.80
2023-02-17T03:24:35.229Z,1012.81
2023-02-17T03:25:35.238Z,1012.87
2023-02-17T03:26:35.220Z,1012.79
2023-02-17T03:27:35.195Z,1012.84
2023-02-17T03:28:35.211Z,1012.83
2023-02-17T03:29:35.178Z,1012.88
2023-02-17T03:30:35.177Z,1012.93
2023-02-17T03:31:35.317Z,1012.98
2023-02-17T03:32:35.158Z,1013.01
2023-02-17T03:33:35.136Z,1012.95
2023-02-17T03:34:35.125Z,1012.97
2023-02-17T03:35:35.108Z,1012.94
2023-02-17T03:36:35.111Z,1012.86
2023-02-17T03:37:35.090Z,1012.84
2023-02-17T03:38:35.102Z,1012.87
2023-02-17T03:39:35.076Z,1012.86
2023-02-17T03:40:35.061Z,1012.86
2023-02-17T03:41:35.051Z,1012.94
2023-02-17T03:42:35.041Z,1012.91
2023-02-17T03:43:35.043Z,1012.87
2023-02-17T03:44:35.035Z,1012.78
2023-02-17T03:45:35.045Z,1012.80
2023-02-17T03:46:35.006Z,1012.81
2023-02-17T03:47:34.984Z,1012.78
2023-02-17T03:48:34.976Z,1012.80
2023-02-17T03:49:34.972Z,1012.68
2023-02-17T03:50:34.956Z,1012.63
2023-02-17T03:51:34.958Z,1012.73
2023-02-17T03:52:34.942Z,1012.72
2023-02-17T03:53:36.581Z,1012.71
2023-02-17T03:54:34.904Z,1012.72
2023-02-17T03:55:34.895Z,1012.76
2023-02-17T03:56:34.900Z,1012.69
2023-02-17T03:57:34.871Z,1012.64
2023-02-17T03:58:34.887Z,1012.69
2023-02-17T03:59:34.862Z,1012.69
2023-02-17T04:00:34.868Z,1012.69
2023-02-17T04:01:34.906Z,1012.72
2023-02-17T04:02:34.815Z,1012.66
2023-02-17T04:03:34.810Z,1012.65
2023-02-17T04:04:34.821Z,1012.62
2023-02-17T04:05:34.797Z,1012.63
2023-02-17T04:06:34.788Z,1012.68
2023-02-17T04:07:34.774Z,1012.62
2023-02-17T04:08:34.764Z,1012.61
2023-02-17T04:09:34.752Z,1012.55
2023-02-17T04:10:34.745Z,1012.55
2023-02-17T04:11:34.736Z,1012.55
2023-02-17T04:12:34.716Z,1012.56
2023-02-17T04:13:34.703Z,1012.56
2023-02-17T04:14:34.705Z,1012.57
2023-02-17T04:15:34.745Z,1012.56
2023-02-17T04:16:34.712Z,1012.49
2023-02-17T04:17:34.673Z,1012.48
2023-02-17T04:18:34.666Z,1012.49
2023-02-17T04:19:34.649Z,1012.52
2023-02-17T04:20:34.641Z,1012.51
2023-02-17T04:21:34.634Z,1012.48
2023-02-17T04:22:34.606Z,1012.46
2023-02-17T04:23:34.596Z,1012.47
2023-02-17T04:24:34.587Z,1012.37
2023-02-17T04:25:34.581Z,1012.36
2023-02-17T04:26:34.579Z,1012.37
2023-02-17T04:27:34.562Z,1012.42
2023-02-17T04:28:34.551Z,1012.32
2023-02-17T04:29:34.534Z,1012.29
2023-02-17T04:30:34.642Z,1012.34
2023-02-17T04:31:34.666Z,1012.25
2023-02-17T04:32:34.516Z,1012.25
2023-02-17T04:33:34.497Z,1012.26
2023-02-17T04:34:34.478Z,1012.26
2023-02-17T04:35:34.471Z,1012.24
2023-02-17T04:36:34.455Z,1012.20
2023-02-17T04:37:34.458Z,1012.22
2023-02-17T04:38:34.433Z,1012.26
2023-02-17T04:39:34.431Z,1012.27
2023-02-17T04:40:34.428Z,1012.30
2023-02-17T04:41:34.426Z,1012.30
2023-02-17T04:42:34.413Z,1012.36
2023-02-17T04:43:34.382Z,1012.31
2023-02-17T04:44:34.378Z,1012.25
2023-02-17T04:45:34.364Z,1012.26
2023-02-17T04:46:34.343Z,1012.27
2023-02-17T04:47:34.333Z,1012.24
2023-02-17T04:48:34.353Z,1012.32
2023-02-17T04:49:34.323Z,1012.32
2023-02-17T04:50:34.312Z,1012.28
2023-02-17T04:51:34.304Z,1012.26
2023-02-17T04:52:34.285Z,1012.26
2023-02-17T04:53:34.286Z,1012.27
2023-02-17T04:54:34.266Z,1012.19
2023-02-17T04:55:34.263Z,1012.24
2023-02-17T04:56:34.233Z,1012.20
2023-02-17T04:57:34.235Z,1012.13
2023-02-17T04:58:34.245Z,1012.14
2023-02-17T04:59:34.206Z,1012.14
2023-02-17T05:00:34.196Z,1012.13
2023-02-17T05:01:34.273Z,1012.18
2023-02-17T05:02:34.196Z,1012.16
2023-02-17T05:03:34.166Z,1012.18
2023-02-17T05:04:34.226Z,1012.16
2023-02-17T05:05:34.143Z,1012.12
2023-02-17T05:06:34.136Z,1012.14
2023-02-17T05:07:34.136Z,1012.14
2023-02-17T05:08:34.116Z,1012.03
2023-02-17T05:09:34.123Z,1012.13
2023-02-17T05:10:34.092Z,1012.12
2023-02-17T05:11:34.083Z,1012.10
2023-02-17T05:12:34.073Z,1012.07
2023-02-17T05:13:34.077Z,1012.13
2023-02-17T05:14:34.068Z,1012.08
2023-02-17T05:15:35.070Z,1012.04
2023-02-17T05:16:34.030Z,1012.09
2023-02-17T05:17:34.022Z,1012.08
2023-02-17T05:18:34.002Z,1012.08
2023-02-17T05:19:33.988Z,1012.00
2023-02-17T05:20:34.023Z,1012.05
2023-02-17T05:21:33.975Z,1011.99
2023-02-17T05:22:33.955Z,1012.02
2023-02-17T05:23:33.943Z,1012.04
2023-02-17T05:24:33.945Z,1011.98
2023-02-17T05:25:33.942Z,1011.91
2023-02-17T05:26:33.928Z,1011.91
2023-02-17T05:27:33.934Z,1011.88
2023-02-17T05:28:33.893Z,1011.86
2023-02-17T05:29:33.879Z,1011.86
2023-02-17T05:30:33.893Z,1011.81
2023-02-17T05:31:34.086Z,1011.75
2023-02-17T05:32:33.855Z,1011.83
2023-02-17T05:33:33.847Z,1011.82
2023-02-17T05:34:33.865Z,1011.86
2023-02-17T05:35:35.069Z,1011.81
2023-02-17T05:36:33.833Z,1011.84
2023-02-17T05:37:33.810Z,1011.84
2023-02-17T05:38:33.788Z,1011.87
2023-02-17T05:39:33.793Z,1011.83
2023-02-17T05:40:33.783Z,1011.93
2023-02-17T05:41:33.776Z,1011.86
2023-02-17T05:42:33.750Z,1011.84
2023-02-17T05:43:33.752Z,1011.86
2023-02-17T05:44:33.735Z,1011.82
2023-02-17T05:45:33.720Z,1011.80
2023-02-17T05:46:33.769Z,1011.85
2023-02-17T05:47:33.722Z,1011.84
2023-02-17T05:48:33.694Z,1011.79
2023-02-17T05:49:33.675Z,1011.78
2023-02-17T05:50:33.668Z,1011.84
2023-02-17T05:51:33.644Z,1011.82
2023-02-17T05:52:33.663Z,1011.76
2023-02-17T05:53:33.705Z,1011.75
2023-02-17T05:54:33.625Z,1011.73
2023-02-17T05:55:33.622Z,1011.76
2023-02-17T05:56:33.611Z,1011.75
2023-02-17T05:57:33.587Z,1011.79
2023-02-17T05:58:33.585Z,1011.77
2023-02-17T05:59:33.583Z,1011.72
2023-02-17T06:00:33.550Z,1011.73
2023-02-17T06:01:33.542Z,1011.71
2023-02-17T06:02:33.536Z,1011.71
2023-02-17T06:03:33.533Z,1011.77
2023-02-17T06:04:33.559Z,1011.72
2023-02-17T06:05:33.506Z,1011.75
2023-02-17T06:06:33.504Z,1011.68
2023-02-17T06:07:33.490Z,1011.68
2023-02-17T06:08:33.502Z,1011.72
2023-02-17T06:09:33.493Z,1011.72
2023-02-17T06:10:33.453Z,1011.75
2023-02-17T06:11:33.438Z,1011.69
2023-02-17T06:12:33.439Z,1011.61
2023-02-17T06:13:33.422Z,1011.46
2023-02-17T06:14:33.412Z,1011.51
2023-02-17T06:15:33.409Z,1011.47
2023-02-17T06:16:33.478Z,1011.48
2023-02-17T06:17:33.377Z,1011.45
2023-02-17T06:18:33.363Z,1011.46
2023-02-17T06:19:33.364Z,1011.45
2023-02-17T06:20:33.369Z,1011.48
2023-02-17T06:21:33.335Z,1011.42
2023-02-17T06:22:33.319Z,1011.46
2023-02-17T06:23:33.318Z,1011.47
2023-02-17T06:24:33.343Z,1011.45
2023-02-17T06:25:33.302Z,1011.42
2023-02-17T06:26:33.279Z,1011.46
2023-02-17T06:27:33.265Z,1011.36
2023-02-17T06:28:35.068Z,1011.36
2023-02-17T06:29:33.244Z,1011.40
2023-02-17T06:30:33.338Z,1011.40
2023-02-17T06:31:33.357Z,1011.36
2023-02-17T06:32:33.226Z,1011.36
2023-02-17T06:33:33.211Z,1011.37
2023-02-17T06:34:33.187Z,1011.37
2023-02-17T06:35:33.209Z,1011.42
2023-02-17T06:36:33.162Z,1011.38
2023-02-17T06:37:33.173Z,1011.40
2023-02-17T06:38:33.150Z,1011.40
2023-02-17T06:39:33.145Z,1011.35
2023-02-17T06:40:33.142Z,1011.43
2023-02-17T06:41:33.134Z,1011.37
2023-02-17T06:42:33.107Z,1011.38
2023-02-17T06:43:33.088Z,1011.30
2023-02-17T06:44:33.093Z,1011.34
2023-02-17T06:45:33.106Z,1011.31
2023-02-17T06:46:33.074Z,1011.26
2023-02-17T06:47:33.065Z,1011.26
2023-02-17T06:48:33.046Z,1011.26
2023-02-17T06:49:33.029Z,1011.21
2023-02-17T06:50:33.020Z,1011.30
2023-02-17T06:51:33.008Z,1011.29
2023-02-17T06:52:33.004Z,1011.31
2023-02-17T06:53:32.998Z,1011.25
2023-02-17T06:54:32.970Z,1011.32
2023-02-17T06:55:32.964Z,1011.31
2023-02-17T06:56:32.970Z,1011.36
2023-02-17T06:57:32.938Z,1011.37
2023-02-17T06:58:32.946Z,1011.38
2023-02-17T06:59:32.938Z,1011.39
2023-02-17T07:00:32.912Z,1011.40
2023-02-17T07:01:32.899Z,1011.30
2023-02-17T07:02:33.043Z,1011.33
2023-02-17T07:03:32.873Z,1011.39
2023-02-17T07:04:32.887Z,1011.39
2023-02-17T07:05:32.868Z,1011.36
2023-02-17T07:06:32.863Z,1011.29
2023-02-17T07:07:32.843Z,1011.29
2023-02-17T07:08:34.112Z,1011.29
2023-02-17T07:09:32.834Z,1011.21
2023-02-17T07:10:32.819Z,1011.17
2023-02-17T07:11:32.880Z,1011.23
2023-02-17T07:12:32.836Z,1011.23
2023-02-17T07:13:32.781Z,1011.26
2023-02-17T07:14:32.773Z,1011.17
2023-02-17T07:15:32.751Z,1011.24
2023-02-17T07:16:32.764Z,1011.16
2023-02-17T07:17:32.739Z,1011.16
2023-02-17T07:18:32.738Z,1011.18
2023-02-17T07:19:32.737Z,1011.24
2023-02-17T07:20:32.729Z,1011.22
2023-02-17T07:21:32.700Z,1011.18
2023-02-17T07:22:32.698Z,1011.20
2023-02-17T07:23:32.690Z,1011.17
2023-02-17T07:24:32.688Z,1011.21
2023-02-17T07:25:32.681Z,1011.25
2023-02-17T07:26:32.649Z,1011.25
2023-02-17T07:27:32.638Z,1011.17
2023-02-17T07:28:32.646Z,1011.18
2023-02-17T07:29:32.609Z,1011.16
2023-02-17T07:30:32.673Z,1011.16
2023-02-17T07:31:32.662Z,1011.09
2023-02-17T07:32:32.606Z,1011.13
2023-02-17T07:33:32.567Z,1011.03
2023-02-17T07:34:32.577Z,1011.06
2023-02-17T07:35:32.554Z,1011.02
2023-02-17T07:36:32.555Z,1011.04
2023-02-17T07:37:32.532Z,1011.06
2023-02-17T07:38:33.484Z,1011.07
2023-02-17T07:39:32.520Z,1010.94
2023-02-17T07:40:32.499Z,1010.94
2023-02-17T07:41:32.494Z,1010.97
2023-02-17T07:42:32.471Z,1010.90
2023-02-17T07:43:32.488Z,1010.89
2023-02-17T07:44:32.463Z,1010.98
2023-02-17T07:45:32.466Z,1010.92
2023-02-17T07:46:32.457Z,1010.90
2023-02-17T07:47:32.424Z,1010.91
2023-02-17T07:48:32.413Z,1010.95
2023-02-17T07:49:32.397Z,1010.92
2023-02-17T07:50:32.388Z,1010.93
2023-02-17T07:51:32.371Z,1010.91
2023-02-17T07:52:32.378Z,1010.91
2023-02-17T07:53:32.379Z,1010.95
2023-02-17T07:54:32.351Z,1010.91
2023-02-17T07:55:32.335Z,1010.84
2023-02-17T07:56:32.320Z,1010.90
2023-02-17T07:57:32.310Z,1010.92
2023-02-17T07:58:32.305Z,1010.87
2023-02-17T07:59:32.290Z,1010.89
2023-02-17T08:00:32.290Z,1010.94
2023-02-17T08:01:32.254Z,1010.94
2023-02-17T08:02:32.269Z,1010.93
2023-02-17T08:03:32.239Z,1010.95
2023-02-17T08:04:32.307Z,1010.88
2023-02-17T08:05:32.238Z,1010.93
2023-02-17T08:06:32.211Z,1010.83
2023-02-17T08:07:32.200Z,1010.90
2023-02-17T08:08:32.182Z,1010.84
2023-02-17T08:09:32.190Z,1010.84
2023-02-17T08:10:32.171Z,1010.87
2023-02-17T08:11:32.151Z,1010.81
2023-02-17T08:12:32.147Z,1010.89
2023-02-17T08:13:32.137Z,1010.88
2023-02-17T08:14:32.124Z,1010.85
2023-02-17T08:15:32.146Z,1010.82
2023-02-17T08:16:32.149Z,1010.82
2023-02-17T08:17:32.126Z,1010.88
2023-02-17T08:18:36.237Z,1010.84
2023-02-17T08:19:46.999Z,1010.81
2023-02-17T08:20:34.977Z,1010.77
2023-02-17T08:21:32.048Z,1010.76
2023-02-17T08:22:32.049Z,1010.82
2023-02-17T08:23:32.039Z,1010.83
2023-02-17T08:24:32.022Z,1010.81
2023-02-17T08:25:32.023Z,1010.84
2023-02-17T08:26:32.014Z,1010.76
2023-02-17T08:27:31.986Z,1010.79
2023-02-17T08:28:31.995Z,1010.74
2023-02-17T08:29:32.016Z,1010.71
2023-02-17T08:30:32.128Z,1010.82
2023-02-17T08:31:32.132Z,1010.77
2023-02-17T08:32:31.964Z,1010.74
2023-02-17T08:33:31.931Z,1010.72
2023-02-17T08:34:31.908Z,1010.70
2023-02-17T08:35:31.911Z,1010.72
2023-02-17T08:36:31.921Z,1010.71
2023-02-17T08:37:31.918Z,1010.67
2023-02-17T08:38:31.882Z,1010.67
2023-02-17T08:39:31.863Z,1010.68
2023-02-17T08:40:31.868Z,1010.66
2023-02-17T08:41:31.856Z,1010.64
2023-02-17T08:42:31.842Z,1010.58
2023-02-17T08:43:31.823Z,1010.63
2023-02-17T08:44:31.812Z,1010.62
2023-02-17T08:45:31.828Z,1010.63
2023-02-17T08:46:31.804Z,1010.62
2023-02-17T08:47:31.796Z,1010.56
2023-02-17T08:48:31.792Z,1010.54
2023-02-17T08:49:31.804Z,1010.53
2023-02-17T08:50:31.796Z,1010.52
2023-02-17T08:51:31.738Z,1010.52
2023-02-17T08:52:31.775Z,1010.45
2023-02-17T08:53:31.748Z,1010.41
2023-02-17T08:54:31.719Z,1010.35
2023-02-17T08:55:43.956Z,1010.33
2023-02-17T08:56:32.712Z,1010.37
2023-02-17T08:57:31.669Z,1010.32
2023-02-17T08:58:31.714Z,1010.32
2023-02-17T08:59:31.648Z,1010.20
2023-02-17T09:00:31.651Z,1010.21
2023-02-17T09:01:31.644Z,1010.20
2023-02-17T09:02:31.617Z,1010.17
2023-02-17T09:03:31.665Z,1010.10
2023-02-17T09:04:31.654Z,1010.16
2023-02-17T09:05:31.592Z,1010.13
2023-02-17T09:06:31.566Z,1010.13
2023-02-17T09:07:31.559Z,1010.13
2023-02-17T09:08:31.553Z,1010.06
2023-02-17T09:09:31.671Z,1010.09
2023-02-17T09:10:31.539Z,1010.00
2023-02-17T09:11:31.520Z,1009.99
2023-02-17T09:12:31.510Z,1010.05
2023-02-17T09:13:31.494Z,1010.03
2023-02-17T09:14:31.495Z,1009.97
2023-02-17T09:15:31.559Z,1010.00
2023-02-17T09:16:31.472Z,1009.95
2023-02-17T09:17:31.521Z,1009.89
2023-02-17T09:18:31.486Z,1009.93
2023-02-17T09:19:31.427Z,1009.86
2023-02-17T09:20:31.476Z,1009.83
2023-02-17T09:21:31.424Z,1009.84
2023-02-17T09:22:32.559Z,1009.77
2023-02-17T09:23:31.404Z,1009.78
2023-02-17T09:24:31.412Z,1009.84
2023-02-17T09:25:31.382Z,1009.73
2023-02-17T09:26:31.460Z,1009.73
2023-02-17T09:27:31.388Z,1009.68
2023-02-17T09:28:31.330Z,1009.66
2023-02-17T09:29:31.329Z,1009.70
2023-02-17T09:30:31.374Z,1009.63
2023-02-17T09:31:31.433Z,1009.72
2023-02-17T09:32:31.344Z,1009.63
2023-02-17T09:33:31.336Z,1009.65
2023-02-17T09:34:31.290Z,1009.66
2023-02-17T09:35:31.292Z,1009.60
2023-02-17T09:36:31.310Z,1009.54
2023-02-17T09:37:31.243Z,1009.56
2023-02-17T09:38:31.238Z,1009.60
2023-02-17T09:39:31.266Z,1009.52
2023-02-17T09:40:31.205Z,1009.58
2023-02-17T09:41:31.213Z,1009.60
2023-02-17T09:42:31.240Z,1009.52
2023-02-17T09:43:31.191Z,1009.51
2023-02-17T09:44:31.261Z,1009.54
2023-02-17T09:45:31.169Z,1009.55
2023-02-17T09:46:31.183Z,1009.52
2023-02-17T09:47:31.171Z,1009.43
2023-02-17T09:48:31.207Z,1009.46
2023-02-17T09:49:31.125Z,1009.35
2023-02-17T09:50:31.106Z,1009.42
2023-02-17T09:51:31.124Z,1009.41
2023-02-17T09:52:31.124Z,1009.38
2023-02-17T09:53:31.078Z,1009.35
2023-02-17T09:54:31.098Z,1009.41
2023-02-17T09:55:31.089Z,1009.27
2023-02-17T09:56:32.648Z,1009.25
2023-02-17T09:57:31.023Z,1009.22
2023-02-17T09:58:31.021Z,1009.24
2023-02-17T09:59:30.996Z,1009.21
2023-02-17T10:00:31.005Z,1009.21
2023-02-17T10:01:31.057Z,1009.25
2023-02-17T10:02:31.026Z,1009.19
2023-02-17T10:03:31.282Z,1009.20
2023-02-17T10:04:31.085Z,1009.13
2023-02-17T10:05:30.927Z,1009.22
2023-02-17T10:06:30.956Z,1009.18
2023-02-17T10:07:30.980Z,1009.15
2023-02-17T10:08:30.942Z,1009.12
2023-02-17T10:09:30.905Z,1009.12
2023-02-17T10:10:30.889Z,1009.11
2023-02-17T10:11:30.919Z,1009.10
2023-02-17T10:12:30.924Z,1009.08
2023-02-17T10:13:30.878Z,1009.08
2023-02-17T10:14:30.921Z,1009.03
2023-02-17T10:15:30.839Z,1008.99
2023-02-17T10:16:30.868Z,1008.97
2023-02-17T10:17:30.804Z,1009.05
2023-02-17T10:18:30.849Z,1009.00
2023-02-17T10:19:30.791Z,1008.98
2023-02-17T10:20:30.769Z,1008.97
2023-02-17T10:21:30.804Z,1008.96
2023-02-17T10:22:30.813Z,1008.84
2023-02-17T10:23:30.824Z,1008.90
2023-02-17T10:24:30.822Z,1008.89
2023-02-17T10:25:30.794Z,1008.88
2023-02-17T10:26:30.745Z,1008.92
2023-02-17T10:27:30.731Z,1008.96
2023-02-17T10:28:30.679Z,1008.85
2023-02-17T10:29:30.717Z,1008.85
2023-02-17T10:30:30.800Z,1008.88
2023-02-17T10:31:30.725Z,1008.83
2023-02-17T10:32:30.830Z,1008.77
2023-02-17T10:33:30.636Z,1008.80
2023-02-17T10:34:30.624Z,1008.77
2023-02-17T10:35:30.635Z,1008.75
2023-02-17T10:36:30.596Z,1008.75
2023-02-17T10:37:30.596Z,1008.77
2023-02-17T10:38:30.584Z,1008.77
2023-02-17T10:39:30.576Z,1008.78
2023-02-17T10:40:30.595Z,1008.70
2023-02-17T10:41:30.550Z,1008.61
2023-02-17T10:42:30.536Z,1008.62
2023-02-17T10:43:30.523Z,1008.57
2023-02-17T10:44:30.534Z,1008.64
2023-02-17T10:45:30.525Z,1008.62
2023-02-17T10:46:30.607Z,1008.61
2023-02-17T10:47:30.501Z,1008.58
2023-02-17T10:48:30.492Z,1008.59
2023-02-17T10:49:30.454Z,1008.57
2023-02-17T10:50:30.451Z,1008.56
2023-02-17T10:51:30.471Z,1008.55
2023-02-17T10:52:30.425Z,1008.51
2023-02-17T10:53:30.418Z,1008.45
2023-02-17T10:54:30.399Z,1008.43
2023-02-17T10:55:30.397Z,1008.36
2023-02-17T10:56:30.405Z,1008.28
2023-02-17T10:57:30.374Z,1008.23
2023-02-17T10:58:30.367Z,1008.22
2023-02-17T10:59:30.364Z,1008.16
2023-02-17T11:00:30.391Z,1008.16
2023-02-17T11:01:30.369Z,1008.17
2023-02-17T11:02:30.344Z,1008.21
2023-02-17T11:03:30.336Z,1008.12
2023-02-17T11:04:30.305Z,1008.08
2023-02-17T11:05:30.299Z,1008.11
2023-02-17T11:06:30.276Z,1008.06
2023-02-17T11:07:30.272Z,1007.93
2023-02-17T11:08:30.274Z,1007.89
2023-02-17T11:09:30.251Z,1007.88
2023-02-17T11:10:30.248Z,1007.82
2023-02-17T11:11:30.230Z,1007.87
2023-02-17T11:12:30.274Z,1007.80
2023-02-17T11:13:30.233Z,1007.79
2023-02-17T11:14:30.259Z,1007.78
2023-02-17T11:15:30.189Z,1007.81
2023-02-17T11:16:30.208Z,1007.76
2023-02-17T11:17:30.200Z,1007.70
2023-02-17T11:18:30.148Z,1007.70
2023-02-17T11:19:30.154Z,1007.73
2023-02-17T11:20:30.146Z,1007.70
2023-02-17T11:21:30.133Z,1007.68
2023-02-17T11:22:30.109Z,1007.58
2023-02-17T11:23:30.118Z,1007.52
2023-02-17T11:24:30.085Z,1007.57
2023-02-17T11:25:30.089Z,1007.57
2023-02-17T11:26:30.089Z,1007.51
2023-02-17T11:27:30.058Z,1007.53
2023-02-17T11:28:30.084Z,1007.40
2023-02-17T11:29:30.051Z,1007.42
2023-02-17T11:30:30.075Z,1007.44
2023-02-17T11:31:30.170Z,1007.39
2023-02-17T11:32:30.016Z,1007.46
2023-02-17T11:33:30.018Z,1007.36
2023-02-17T11:34:30.006Z,1007.30
2023-02-17T11:35:29.983Z,1007.44
2023-02-17T11:36:29.968Z,1007.28
2023-02-17T11:37:29.978Z,1007.29
2023-02-17T11:38:29.949Z,1007.32
2023-02-17T11:39:29.939Z,1007.26
2023-02-17T11:40:29.939Z,1007.22
2023-02-17T11:41:29.927Z,1007.20
2023-02-17T11:42:29.915Z,1007.19
2023-02-17T11:43:29.902Z,1007.18
2023-02-17T11:44:29.900Z,1007.17
2023-02-17T11:45:29.923Z,1007.08
2023-02-17T11:46:29.884Z,1007.14
2023-02-17T11:47:29.853Z,1007.03
2023-02-17T11:48:29.848Z,1007.03
2023-02-17T11:49:29.843Z,1007.04
2023-02-17T11:50:40.968Z,1006.89
2023-02-17T11:51:30.827Z,1006.83
2023-02-17T11:52:29.798Z,1006.78
2023-02-17T11:53:29.800Z,1006.79
2023-02-17T11:54:29.793Z,1006.73
2023-02-17T11:55:29.779Z,1006.79
2023-02-17T11:56:29.777Z,1006.70
2023-02-17T11:57:29.758Z,1006.76
2023-02-17T11:58:29.744Z,1006.75
2023-02-17T11:59:29.724Z,1006.71
2023-02-17T12:00:29.745Z,1006.67
2023-02-17T12:01:29.711Z,1006.66
2023-02-17T12:02:29.719Z,1006.68
2023-02-17T12:03:29.757Z,1006.67
2023-02-17T12:04:29.668Z,1006.68
2023-02-17T12:05:29.657Z,1006.69